createdAt,value
2023-04-11T00:01:41.087Z,8.60
2023-04-11T00:04:11.039Z,8.60
2023-04-11T00:06:39.369Z,8.60
2023-04-11T00:09:08.919Z,8.50
2023-04-11T00:11:37.101Z,8.60
2023-04-11T00:14:09.002Z,8.60
2023-04-11T00:16:37.254Z,8.60
2023-04-11T00:19:07.433Z,8.60
2023-04-11T00:21:35.641Z,8.60
2023-04-11T00:24:03.703Z,8.60
2023-04-11T00:26:33.083Z,8.60
2023-04-11T00:29:01.121Z,8.60
2023-04-11T00:31:31.737Z,8.60
2023-04-11T00:34:02.529Z,8.60
2023-04-11T00:36:31.806Z,8.60
2023-04-11T00:39:01.271Z,8.60
2023-04-11T00:41:29.499Z,8.80
2023-04-11T00:43:58.885Z,8.60
2023-04-11T00:46:27.980Z,8.60
2023-04-11T00:48:56.465Z,8.50
2023-04-11T00:51:24.988Z,8.60
2023-04-11T00:53:53.116Z,8.60
2023-04-11T00:56:22.393Z,8.50
2023-04-11T00:58:50.656Z,8.40
2023-04-11T01:01:25.014Z,8.30
2023-04-11T01:03:53.837Z,8.50
2023-04-11T01:06:24.471Z,8.40
2023-04-11T01:08:52.893Z,8.40
2023-04-11T01:11:21.656Z,8.50
2023-04-11T01:13:50.837Z,8.50
2023-04-11T01:16:21.467Z,8.60
2023-04-11T01:18:50.056Z,8.60
2023-04-11T01:21:20.482Z,8.60
2023-04-11T01:23:52.706Z,8.60
2023-04-11T01:26:21.171Z,8.70
2023-04-11T01:28:49.216Z,8.70
2023-04-11T01:33:45.353Z,8.70
2023-04-11T01:36:13.647Z,8.70
2023-04-11T01:38:41.899Z,8.70
2023-04-11T01:41:11.969Z,8.60
2023-04-11T01:43:40.366Z,8.70
2023-04-11T01:46:08.962Z,8.70
2023-04-11T01:48:37.116Z,8.60
2023-04-11T01:51:05.948Z,8.60
2023-04-11T01:53:34.068Z,8.60
2023-04-11T01:56:02.109Z,8.40
2023-04-11T01:58:31.521Z,8.60
2023-04-11T02:00:59.555Z,8.60
2023-04-11T02:03:27.943Z,8.60
2023-04-11T02:05:56.793Z,8.60
2023-04-11T02:08:24.799Z,8.60
2023-04-11T02:10:52.776Z,8.70
2023-04-11T02:13:20.798Z,8.60
2023-04-11T02:15:50.381Z,8.70
2023-04-11T02:18:18.481Z,8.70
2023-04-11T02:20:46.481Z,8.80
2023-04-11T02:23:16.179Z,8.70
2023-04-11T02:25:44.229Z,8.70
2023-04-11T02:28:12.276Z,8.60
2023-04-11T02:30:40.285Z,8.80
2023-04-11T02:33:09.776Z,8.50
2023-04-11T02:35:37.903Z,8.50
2023-04-11T02:38:05.950Z,8.50
2023-04-11T02:40:33.968Z,8.40
2023-04-11T02:43:02.235Z,8.30
2023-04-11T02:45:30.692Z,8.20
2023-04-11T02:47:59.108Z,8.20
2023-04-11T02:50:28.557Z,8.20
2023-04-11T02:52:56.968Z,8.10
2023-04-11T02:55:25.246Z,8.10
2023-04-11T02:57:53.280Z,8.10
2023-04-11T03:00:22.118Z,8.20
2023-04-11T03:02:50.237Z,8.30
2023-04-11T03:05:18.380Z,8.30
2023-04-11T03:07:47.957Z,8.40
2023-04-11T03:10:16.101Z,8.50
2023-04-11T03:12:44.102Z,8.50
2023-04-11T03:15:15.435Z,8.60
2023-04-11T03:17:43.671Z,8.60
2023-04-11T03:20:13.706Z,8.80
2023-04-11T03:22:41.776Z,8.60
2023-04-11T03:25:11.406Z,8.60
2023-04-11T03:27:39.442Z,8.50
2023-04-11T03:30:08.695Z,8.50
2023-04-11T03:32:36.812Z,8.50
2023-04-11T03:35:05.424Z,8.40
2023-04-11T03:37:33.463Z,8.40
2023-04-11T03:40:01.513Z,8.40
2023-04-11T03:42:30.926Z,8.40
2023-04-11T03:44:58.921Z,8.40
2023-04-11T03:47:27.099Z,8.40
2023-04-11T03:49:55.111Z,8.40
2023-04-11T03:52:23.166Z,8.40
2023-04-11T03:54:51.193Z,8.40
2023-04-11T03:57:19.218Z,8.40
2023-04-11T03:59:48.830Z,8.40
2023-04-11T04:02:17.058Z,8.30
2023-04-11T04:04:47.265Z,8.30
2023-04-11T04:07:17.018Z,8.30
2023-04-11T04:09:45.199Z,8.20
2023-04-11T04:12:13.241Z,8.30
2023-04-11T04:14:41.234Z,8.20
2023-04-11T04:17:10.826Z,8.30
2023-04-11T04:19:38.811Z,8.30
2023-04-11T04:22:11.664Z,8.60
2023-04-11T04:24:39.809Z,8.30
2023-04-11T04:27:09.239Z,8.30
2023-04-11T04:29:39.578Z,8.30
2023-04-11T04:32:11.123Z,8.30
2023-04-11T04:34:46.941Z,8.40
2023-04-11T04:37:21.571Z,8.30
2023-04-11T04:39:54.251Z,8.30
2023-04-11T04:42:23.913Z,8.20
2023-04-11T04:44:52.727Z,8.30
2023-04-11T04:47:22.635Z,8.20
2023-04-11T04:49:56.715Z,8.30
2023-04-11T04:52:25.756Z,8.20
2023-04-11T04:54:54.060Z,8.20
2023-04-11T04:57:22.255Z,8.20
2023-04-11T04:59:50.400Z,8.20
2023-04-11T05:02:18.527Z,8.30
2023-04-11T05:04:46.858Z,8.50
2023-04-11T05:07:16.372Z,8.60
2023-04-11T05:09:44.404Z,8.60
2023-04-11T05:12:13.707Z,8.70
2023-04-11T05:14:41.764Z,8.70
2023-04-11T05:17:09.815Z,8.60
2023-04-11T05:19:37.861Z,8.60
2023-04-11T05:22:06.001Z,8.30
2023-04-11T05:24:35.457Z,8.20
2023-04-11T05:27:03.577Z,8.10
2023-04-11T05:29:31.729Z,8.00
2023-04-11T05:31:59.708Z,7.90
2023-04-11T05:34:32.777Z,7.90
2023-04-11T05:37:01.359Z,7.90
2023-04-11T05:39:29.396Z,7.80
2023-04-11T05:41:58.798Z,7.90
2023-04-11T05:44:26.804Z,8.00
2023-04-11T05:46:54.828Z,8.10
2023-04-11T05:49:22.905Z,8.10
2023-04-11T05:51:50.999Z,8.20
2023-04-11T05:54:32.766Z,8.10
2023-04-11T05:57:03.145Z,8.00
2023-04-11T05:59:32.640Z,7.90
2023-04-11T06:02:01.700Z,7.80
2023-04-11T06:04:30.108Z,7.70
2023-04-11T06:06:59.582Z,7.70
2023-04-11T06:09:27.772Z,7.60
2023-04-11T06:11:57.542Z,7.60
2023-04-11T06:14:33.045Z,7.80
2023-04-11T06:17:01.433Z,7.60
2023-04-11T06:19:29.465Z,7.80
2023-04-11T06:21:57.604Z,7.70
2023-04-11T06:24:37.181Z,7.80
2023-04-11T06:27:05.819Z,7.80
2023-04-11T06:29:35.238Z,7.80
2023-04-11T06:32:03.331Z,7.70
2023-04-11T06:34:31.443Z,7.80
2023-04-11T06:36:59.546Z,7.80
2023-04-11T06:39:27.645Z,7.90
2023-04-11T06:41:56.524Z,8.00
2023-04-11T06:44:24.713Z,8.20
2023-04-11T06:46:54.423Z,8.30
2023-04-11T06:49:22.577Z,8.40
2023-04-11T06:51:50.616Z,8.60
2023-04-11T06:54:19.375Z,8.60
2023-04-11T06:56:47.599Z,8.90
2023-04-11T06:59:15.763Z,9.20
2023-04-11T07:01:43.947Z,9.30
2023-04-11T07:04:13.616Z,9.40
2023-04-11T07:06:41.750Z,9.50
2023-04-11T07:09:10.720Z,9.60
2023-04-11T07:11:39.154Z,9.70
2023-04-11T07:14:07.810Z,9.90
2023-04-11T07:16:35.916Z,10.10
2023-04-11T07:19:04.112Z,10.30
2023-04-11T07:21:33.724Z,10.50
2023-04-11T07:24:01.790Z,10.60
2023-04-11T07:26:32.492Z,10.70
2023-04-11T07:29:00.902Z,10.60
2023-04-11T07:31:29.045Z,10.60
2023-04-11T07:33:57.320Z,10.50
2023-04-11T07:36:26.678Z,10.30
2023-04-11T07:38:56.100Z,10.10
2023-04-11T07:41:24.178Z,9.90
2023-04-11T07:43:52.306Z,9.80
2023-04-11T07:46:20.663Z,9.80
2023-04-11T07:48:48.687Z,10.00
2023-04-11T07:51:18.104Z,10.20
2023-04-11T07:53:46.302Z,10.40
2023-04-11T07:56:16.762Z,10.60
2023-04-11T07:58:45.259Z,10.90
2023-04-11T08:01:21.853Z,11.30
2023-04-11T08:03:50.176Z,11.40
2023-04-11T08:06:18.369Z,11.50
2023-04-11T08:08:47.074Z,11.60
2023-04-11T08:11:16.916Z,12.10
2023-04-11T08:13:45.173Z,12.40
2023-04-11T08:16:15.522Z,13.00
2023-04-11T08:18:45.820Z,13.40
2023-04-11T08:21:14.151Z,13.50
2023-04-11T08:23:42.936Z,14.20
2023-04-11T08:26:12.932Z,15.00
2023-04-11T08:28:43.575Z,15.10
2023-04-11T08:31:13.324Z,14.90
2023-04-11T08:33:42.318Z,14.80
2023-04-11T08:36:11.462Z,14.40
2023-04-11T08:38:40.807Z,13.80
2023-04-11T08:41:09.448Z,13.30
2023-04-11T08:43:39.074Z,13.20
2023-04-11T08:46:09.586Z,13.70
2023-04-11T08:48:37.990Z,13.60
2023-04-11T08:51:06.567Z,13.60
2023-04-11T08:53:38.715Z,13.70
2023-04-11T08:56:07.255Z,13.60
2023-04-11T08:58:35.378Z,14.20
2023-04-11T09:01:30.482Z,15.30
2023-04-11T09:04:00.426Z,15.40
2023-04-11T09:06:30.989Z,14.90
2023-04-11T09:09:00.541Z,14.40
2023-04-11T09:11:29.024Z,14.60
2023-04-11T09:14:10.803Z,14.30
2023-04-11T09:16:55.738Z,14.70
2023-04-11T09:19:27.932Z,14.20
2023-04-11T09:21:59.290Z,14.40
2023-04-11T09:24:27.547Z,16.00
2023-04-11T09:27:09.011Z,17.90
2023-04-11T09:29:51.354Z,19.40
2023-04-11T09:32:32.848Z,20.50
2023-04-11T09:35:12.070Z,21.30
2023-04-11T09:37:45.450Z,21.10
2023-04-11T09:40:14.991Z,20.70
2023-04-11T09:42:43.530Z,21.40
2023-04-11T09:45:21.097Z,21.90
2023-04-11T09:47:50.288Z,22.50
2023-04-11T09:50:19.141Z,21.10
2023-04-11T09:52:48.039Z,19.40
2023-04-11T09:55:17.986Z,17.90
2023-04-11T09:57:47.929Z,16.70
2023-04-11T10:00:19.545Z,15.50
2023-04-11T10:02:52.917Z,14.40
2023-04-11T10:05:26.056Z,14.20
2023-04-11T10:08:00.713Z,14.50
2023-04-11T10:10:29.111Z,14.80
2023-04-11T10:12:57.660Z,14.90
2023-04-11T10:15:25.815Z,14.60
2023-04-11T10:18:11.731Z,13.90
2023-04-11T10:20:47.442Z,12.90
2023-04-11T10:23:16.608Z,12.20
2023-04-11T10:25:55.743Z,11.30
2023-04-11T10:28:38.508Z,10.50
2023-04-11T10:31:13.284Z,9.80
2023-04-11T10:34:15.554Z,9.20
2023-04-11T10:37:05.043Z,8.50
2023-04-11T10:40:09.017Z,8.00
2023-04-11T10:42:39.317Z,7.70
2023-04-11T10:45:25.159Z,7.50
2023-04-11T10:48:13.957Z,7.50
2023-04-11T10:50:44.948Z,7.70
2023-04-11T10:53:47.340Z,8.60
2023-04-11T10:56:16.128Z,10.00
2023-04-11T10:58:44.343Z,11.80
2023-04-11T11:01:26.384Z,13.00
2023-04-11T11:04:06.427Z,13.80
2023-04-11T11:06:46.727Z,14.50
2023-04-11T11:09:24.166Z,14.40
2023-04-11T11:12:07.699Z,13.90
2023-04-11T11:14:37.128Z,13.10
2023-04-11T11:17:05.892Z,12.70
2023-04-11T11:19:35.672Z,12.30
2023-04-11T11:22:06.723Z,12.00
2023-04-11T11:24:34.938Z,12.10
2023-04-11T11:27:03.239Z,12.80
2023-04-11T11:29:32.630Z,13.60
2023-04-11T11:32:03.550Z,14.20
2023-04-11T11:34:33.574Z,14.60
2023-04-11T11:37:05.484Z,14.70
2023-04-11T11:39:34.178Z,14.90
2023-04-11T11:42:03.512Z,15.00
2023-04-11T11:44:32.893Z,15.10
2023-04-11T11:47:06.140Z,15.10
2023-04-11T11:49:48.222Z,14.90
2023-04-11T11:52:33.911Z,14.80
2023-04-11T11:55:03.326Z,15.00
2023-04-11T11:57:31.612Z,15.20
2023-04-11T12:00:04.023Z,15.50
2023-04-11T12:02:36.218Z,15.50
2023-04-11T12:05:07.225Z,15.20
2023-04-11T12:07:39.238Z,15.00
2023-04-11T12:10:11.983Z,15.00
2023-04-11T12:12:41.532Z,15.30
2023-04-11T12:15:12.430Z,15.30
2023-04-11T12:17:41.379Z,15.30
2023-04-11T12:20:11.260Z,15.50
2023-04-11T12:22:40.975Z,15.50
2023-04-11T12:25:10.748Z,15.00
2023-04-11T12:27:39.882Z,14.80
2023-04-11T12:30:09.400Z,14.70
2023-04-11T12:32:38.521Z,14.50
2023-04-11T12:35:08.152Z,14.30
2023-04-11T12:37:36.844Z,14.40
2023-04-11T12:40:12.598Z,14.60
2023-04-11T12:42:53.549Z,15.00
2023-04-11T12:45:29.791Z,15.40
2023-04-11T12:47:58.100Z,15.90
2023-04-11T12:50:26.603Z,16.00
2023-04-11T12:52:56.239Z,15.80
2023-04-11T12:55:26.254Z,16.00
2023-04-11T12:57:54.600Z,16.00
2023-04-11T13:00:23.430Z,16.30
2023-04-11T13:02:51.905Z,16.20
2023-04-11T13:05:20.523Z,16.00
2023-04-11T13:07:48.709Z,15.90
2023-04-11T13:10:17.850Z,16.00
2023-04-11T13:12:48.539Z,15.80
2023-04-11T13:15:17.772Z,15.70
2023-04-11T13:17:46.157Z,15.80
2023-04-11T13:20:14.634Z,15.80
2023-04-11T13:22:44.370Z,16.00
2023-04-11T13:25:13.226Z,16.10
2023-04-11T13:27:42.973Z,16.10
2023-04-11T13:30:13.708Z,16.30
2023-04-11T13:32:41.956Z,16.30
2023-04-11T13:35:10.627Z,16.30
2023-04-11T13:37:38.898Z,16.80
2023-04-11T13:40:11.382Z,17.20
2023-04-11T13:42:39.595Z,17.50
2023-04-11T13:45:08.800Z,17.70
2023-04-11T13:47:38.938Z,18.10
2023-04-11T13:50:09.204Z,18.50
2023-04-11T13:52:37.632Z,18.90
2023-04-11T13:55:06.866Z,19.20
2023-04-11T13:57:35.046Z,19.30
2023-04-11T14:00:06.736Z,18.50
2023-04-11T14:02:35.089Z,17.50
2023-04-11T14:05:05.850Z,17.50
2023-04-11T14:07:33.904Z,17.40
2023-04-11T14:10:02.063Z,16.90
2023-04-11T14:12:30.253Z,16.40
2023-04-11T14:14:58.474Z,15.50
2023-04-11T14:17:26.641Z,15.00
2023-04-11T14:19:54.778Z,14.50
2023-04-11T14:22:24.240Z,14.50
2023-04-11T14:24:53.010Z,15.50
2023-04-11T14:27:21.106Z,17.10
2023-04-11T14:29:49.151Z,18.10
2023-04-11T14:32:18.313Z,18.20
2023-04-11T14:34:46.951Z,17.80
2023-04-11T14:37:15.071Z,17.30
2023-04-11T14:39:44.526Z,16.80
2023-04-11T14:42:12.605Z,16.40
2023-04-11T14:44:40.808Z,16.50
2023-04-11T14:47:09.047Z,16.90
2023-04-11T14:49:37.147Z,17.30
2023-04-11T14:52:05.514Z,17.60
2023-04-11T14:54:33.715Z,17.70
2023-04-11T14:57:03.742Z,17.40
2023-04-11T14:59:31.903Z,17.30
2023-04-11T15:02:00.097Z,17.50
2023-04-11T15:04:28.366Z,17.70
2023-04-11T15:06:56.582Z,17.70
2023-04-11T15:09:24.670Z,17.20
2023-04-11T15:11:52.761Z,17.40
2023-04-11T15:14:29.112Z,17.60
2023-04-11T15:16:57.409Z,17.70
2023-04-11T15:19:25.786Z,17.80
2023-04-11T15:21:54.146Z,17.70
2023-04-11T15:24:22.219Z,17.70
2023-04-11T15:26:50.631Z,17.10
2023-04-11T15:29:18.868Z,16.80
2023-04-11T15:31:48.395Z,16.60
2023-04-11T15:34:16.849Z,16.30
2023-04-11T15:36:45.274Z,16.20
2023-04-11T15:39:13.365Z,16.10
2023-04-11T15:41:41.487Z,16.20
2023-04-11T15:44:09.668Z,16.10
2023-04-11T15:46:37.828Z,16.20
2023-04-11T15:49:07.368Z,16.40
2023-04-11T15:51:35.516Z,16.50
2023-04-11T15:54:04.850Z,16.60
2023-04-11T15:56:34.022Z,16.80
2023-04-11T15:59:02.248Z,16.80
2023-04-11T16:01:31.082Z,16.80
2023-04-11T16:03:59.798Z,16.70
2023-04-11T16:06:29.665Z,16.50
2023-04-11T16:08:57.730Z,16.50
2023-04-11T16:11:25.914Z,16.60
2023-04-11T16:13:54.332Z,16.30
2023-04-11T16:16:22.717Z,16.20
2023-04-11T16:18:50.920Z,16.30
2023-04-11T16:21:19.065Z,16.20
2023-04-11T16:23:48.540Z,16.40
2023-04-11T16:26:16.976Z,16.30
2023-04-11T16:28:45.073Z,16.10
2023-04-11T16:31:15.237Z,16.00
2023-04-11T16:33:43.348Z,15.70
2023-04-11T16:36:11.667Z,15.40
2023-04-11T16:38:39.880Z,15.40
2023-04-11T16:41:09.469Z,15.20
2023-04-11T16:43:37.560Z,15.10
2023-04-11T16:46:07.542Z,14.90
2023-04-11T16:48:35.773Z,14.70
2023-04-11T16:51:03.877Z,14.50
2023-04-11T16:53:31.934Z,14.40
2023-04-11T16:56:00.153Z,14.20
2023-04-11T16:58:29.724Z,14.00
2023-04-11T17:00:57.891Z,13.90
2023-04-11T17:03:26.259Z,13.80
2023-04-11T17:05:54.454Z,13.70
2023-04-11T17:08:22.637Z,13.60
2023-04-11T17:10:50.740Z,13.50
2023-04-11T17:13:19.547Z,13.40
2023-04-11T17:15:48.984Z,13.30
2023-04-11T17:18:16.974Z,13.20
2023-04-11T17:20:46.356Z,13.10
2023-04-11T17:23:14.452Z,13.00
2023-04-11T17:25:42.488Z,12.90
2023-04-11T17:28:10.585Z,12.80
2023-04-11T17:30:38.679Z,12.70
2023-04-11T17:33:08.706Z,12.60
2023-04-11T17:35:37.197Z,12.50
2023-04-11T17:38:05.381Z,12.40
2023-04-11T17:40:33.484Z,12.20
2023-04-11T17:43:01.554Z,12.10
2023-04-11T17:45:29.675Z,12.00
2023-04-11T17:47:57.905Z,11.90
2023-04-11T17:50:27.343Z,11.70
2023-04-11T17:52:56.019Z,11.60
2023-04-11T17:55:24.441Z,11.40
2023-04-11T17:57:53.773Z,11.10
2023-04-11T18:00:23.352Z,10.90
2023-04-11T18:02:53.175Z,10.80
2023-04-11T18:05:24.803Z,10.50
2023-04-11T18:07:57.478Z,10.30
2023-04-11T18:10:27.124Z,10.20
2023-04-11T18:12:56.786Z,9.90
2023-04-11T18:15:26.401Z,9.70
2023-04-11T18:17:54.752Z,9.60
2023-04-11T18:20:23.026Z,9.50
2023-04-11T18:22:54.528Z,9.40
2023-04-11T18:25:24.363Z,9.20
2023-04-11T18:27:52.418Z,9.10
2023-04-11T18:30:20.679Z,9.00
2023-04-11T18:32:50.959Z,8.90
2023-04-11T18:35:19.825Z,8.70
2023-04-11T18:37:47.987Z,8.70
2023-04-11T18:40:16.939Z,8.60
2023-04-11T18:42:49.176Z,8.50
2023-04-11T18:45:20.653Z,8.40
2023-04-11T18:47:49.046Z,8.30
2023-04-11T18:50:18.410Z,8.30
2023-04-11T18:52:49.663Z,8.20
2023-04-11T18:55:18.652Z,8.10
2023-04-11T18:57:49.094Z,8.00
2023-04-11T19:00:19.399Z,7.90
2023-04-11T19:02:50.686Z,7.80
2023-04-11T19:05:19.477Z,7.80
2023-04-11T19:07:47.806Z,7.70
2023-04-11T19:10:16.010Z,7.60
2023-04-11T19:12:44.101Z,7.50
2023-04-11T19:15:14.176Z,7.40
2023-04-11T19:17:42.367Z,7.30
2023-04-11T19:20:13.661Z,7.30
2023-04-11T19:22:42.177Z,7.20
2023-04-11T19:25:11.992Z,7.20
2023-04-11T19:27:41.908Z,7.10
2023-04-11T19:30:13.780Z,7.20
2023-04-11T19:32:46.045Z,7.30
2023-04-11T19:35:14.739Z,7.30
2023-04-11T19:37:43.135Z,7.30
2023-04-11T19:40:12.335Z,7.30
2023-04-11T19:42:41.062Z,7.30
2023-04-11T19:45:10.653Z,7.30
2023-04-11T19:47:40.205Z,7.40
2023-04-11T19:50:13.142Z,7.30
2023-04-11T19:52:42.135Z,7.20
2023-04-11T19:55:11.307Z,7.20
2023-04-11T19:57:40.303Z,7.10
2023-04-11T20:00:14.100Z,7.10
2023-04-11T20:02:48.058Z,7.00
2023-04-11T20:05:19.408Z,7.00
2023-04-11T20:07:48.200Z,6.90
2023-04-11T20:10:17.834Z,6.80
2023-04-11T20:12:46.128Z,6.70
2023-04-11T20:15:14.811Z,6.70
2023-04-11T20:17:45.880Z,6.60
2023-04-11T20:20:15.786Z,6.60
2023-04-11T20:22:45.943Z,6.50
2023-04-11T20:25:14.604Z,6.50
2023-04-11T20:27:45.332Z,6.50
2023-04-11T20:30:15.889Z,6.50
2023-04-11T20:32:45.243Z,6.50
2023-04-11T20:35:13.810Z,6.50
2023-04-11T20:37:43.705Z,6.30
2023-04-11T20:40:14.467Z,6.30
2023-04-11T20:42:45.418Z,6.20
2023-04-11T20:45:15.855Z,6.20
2023-04-11T20:47:46.254Z,6.10
2023-04-11T20:50:17.101Z,6.10
2023-04-11T20:52:47.799Z,6.00
2023-04-11T20:55:18.080Z,6.00
2023-04-11T20:57:46.262Z,6.00
2023-04-11T21:00:17.106Z,5.90
2023-04-11T21:02:46.786Z,5.90
2023-04-11T21:05:15.398Z,6.00
2023-04-11T21:07:44.162Z,5.80
2023-04-11T21:10:13.121Z,5.70
2023-04-11T21:12:43.797Z,5.70
2023-04-11T21:15:12.774Z,5.70
2023-04-11T21:17:43.509Z,5.60
2023-04-11T21:20:18.321Z,5.60
2023-04-11T21:22:47.682Z,5.60
2023-04-11T21:25:16.038Z,5.60
2023-04-11T21:27:45.582Z,5.60
2023-04-11T21:30:14.781Z,5.60
2023-04-11T21:32:43.090Z,5.60
2023-04-11T21:35:12.568Z,5.60
2023-04-11T21:37:41.158Z,5.60
2023-04-11T21:40:10.141Z,5.60
2023-04-11T21:42:38.314Z,5.60
2023-04-11T21:45:09.596Z,5.60
2023-04-11T21:47:37.914Z,5.60
2023-04-11T21:50:06.959Z,5.80
2023-04-11T21:52:35.004Z,5.60
2023-04-11T21:55:03.158Z,5.60
2023-04-11T21:57:34.022Z,5.60
2023-04-11T22:00:02.191Z,5.60
2023-04-11T22:02:31.985Z,5.60
2023-04-11T22:05:06.249Z,5.70
2023-04-11T22:07:39.052Z,5.70
2023-04-11T22:10:11.781Z,5.80
2023-04-11T22:12:40.717Z,5.80
2023-04-11T22:15:12.518Z,5.80
2023-04-11T22:17:43.684Z,5.80
2023-04-11T22:20:13.295Z,5.80
2023-04-11T22:22:42.140Z,5.80
2023-04-11T22:25:11.602Z,6.00
2023-04-11T22:27:40.049Z,5.80
2023-04-11T22:30:09.882Z,5.90
2023-04-11T22:32:38.187Z,5.90
2023-04-11T22:35:09.430Z,6.10
2023-04-11T22:37:37.592Z,6.00
2023-04-11T22:40:07.056Z,6.30
2023-04-11T22:42:36.278Z,6.10
2023-04-11T22:45:04.429Z,6.10
2023-04-11T22:47:34.392Z,6.20
2023-04-11T22:50:03.708Z,6.30
2023-04-11T22:52:33.272Z,6.30
2023-04-11T22:55:01.396Z,6.30
2023-04-11T22:57:29.476Z,6.40
2023-04-11T22:59:59.236Z,6.40
2023-04-11T23:02:31.604Z,6.40
2023-04-11T23:04:59.870Z,6.50
2023-04-11T23:07:28.123Z,6.30
2023-04-11T23:10:00.950Z,6.30
2023-04-11T23:12:29.475Z,6.30
2023-04-11T23:14:57.872Z,6.20
2023-04-11T23:17:26.586Z,6.20
2023-04-11T23:19:54.832Z,6.20
2023-04-11T23:22:23.571Z,6.20
2023-04-11T23:24:53.336Z,6.20
2023-04-11T23:27:22.865Z,6.30
2023-04-11T23:29:51.415Z,6.20
2023-04-11T23:32:19.701Z,6.50
2023-04-11T23:34:47.878Z,6.30
2023-04-11T23:37:16.562Z,6.40
2023-04-11T23:39:44.655Z,6.40
2023-04-11T23:42:12.711Z,6.40
2023-04-11T23:44:42.298Z,6.60
2023-04-11T23:47:10.496Z,6.70
2023-04-11T23:49:38.529Z,7.00
2023-04-11T23:52:07.522Z,6.80
2023-04-11T23:54:36.498Z,6.90
2023-04-11T23:57:04.761Z,7.10
2023-04-11T23:59:32.932Z,7.20
